createdAt,value
2022-09-25T00:00:32.233Z,97423.03
2022-09-25T00:02:58.982Z,97421.94
2022-09-25T00:05:27.324Z,97420.53
2022-09-25T00:07:55.938Z,97424.66
2022-09-25T00:10:24.671Z,97437.56
2022-09-25T00:12:51.760Z,97424.03
2022-09-25T00:15:18.645Z,97421.63
2022-09-25T00:17:45.409Z,97435.47
2022-09-25T00:20:12.278Z,97431.84
2022-09-25T00:22:42.111Z,97432.53
2022-09-25T00:25:11.179Z,97428.44
2022-09-25T00:27:37.829Z,97425.66
2022-09-25T00:30:05.987Z,97423.84
2022-09-25T00:32:32.704Z,97419.50
2022-09-25T00:34:59.698Z,97420.03
2022-09-25T00:37:28.533Z,97408.59
2022-09-25T00:39:56.948Z,97412.69
2022-09-25T00:42:23.839Z,97412.69
2022-09-25T00:44:56.829Z,97404.88
2022-09-25T00:47:45.064Z,97402.06
2022-09-25T00:50:34.046Z,97408.91
2022-09-25T00:53:06.925Z,97412.50
2022-09-25T00:55:37.664Z,97409.59
2022-09-25T00:58:06.163Z,97406.28
2022-09-25T01:00:34.903Z,97400.88
2022-09-25T01:03:02.807Z,97405.25
2022-09-25T01:05:33.323Z,97411.28
2022-09-25T01:08:02.362Z,97407.47
2022-09-25T01:10:29.158Z,97409.69
2022-09-25T01:12:58.606Z,97405.47
2022-09-25T01:15:37.460Z,97402.75
2022-09-25T01:18:17.091Z,97408.38
2022-09-25T01:21:15.555Z,97407.03
2022-09-25T01:24:19.201Z,97401.84
2022-09-25T01:27:33.435Z,97404.75
2022-09-25T01:30:08.143Z,97406.66
2022-09-25T01:32:45.276Z,97401.78
2022-09-25T01:35:18.425Z,97400.66
2022-09-25T01:37:51.836Z,97392.25
2022-09-25T01:40:26.278Z,97395.75
2022-09-25T01:42:58.855Z,97392.03
2022-09-25T01:45:35.375Z,97392.81
2022-09-25T01:48:05.381Z,97390.22
2022-09-25T01:50:40.508Z,97388.81
2022-09-25T01:53:13.694Z,97391.31
2022-09-25T01:55:44.856Z,97392.31
2022-09-25T01:58:15.911Z,97387.47
2022-09-25T02:00:50.985Z,97394.09
2022-09-25T02:03:26.119Z,97396.59
2022-09-25T02:05:55.267Z,97391.69
2022-09-25T02:08:26.849Z,97389.78
2022-09-25T02:10:57.355Z,97380.34
2022-09-25T02:13:28.884Z,97393.59
2022-09-25T02:15:59.865Z,97388.41
2022-09-25T02:18:47.703Z,97390.81
2022-09-25T02:21:25.190Z,97386.78
2022-09-25T02:23:57.407Z,97389.97
2022-09-25T02:26:28.070Z,97386.69
2022-09-25T02:28:56.084Z,97384.78
2022-09-25T02:31:31.188Z,97387.78
2022-09-25T02:33:58.403Z,97388.81
2022-09-25T02:36:25.282Z,97385.28
2022-09-25T02:38:54.215Z,97386.13
2022-09-25T02:41:37.374Z,97389.72
2022-09-25T02:44:16.596Z,97392.41
2022-09-25T02:46:56.724Z,97385.91
2022-09-25T02:49:34.034Z,97387.47
2022-09-25T02:52:05.927Z,97387.47
2022-09-25T02:54:39.764Z,97394.91
2022-09-25T02:57:13.791Z,97391.69
2022-09-25T02:59:47.292Z,97396.22
2022-09-25T03:02:16.885Z,97394.31
2022-09-25T03:04:48.157Z,97395.41
2022-09-25T03:07:16.509Z,97394.03
2022-09-25T03:09:46.929Z,97386.69
2022-09-25T03:12:14.639Z,97397.53
2022-09-25T03:14:41.516Z,97394.59
2022-09-25T03:17:10.255Z,97401.31
2022-09-25T03:19:38.415Z,97397.31
2022-09-25T03:22:05.148Z,97393.31
2022-09-25T03:24:31.806Z,97398.50
2022-09-25T03:26:58.469Z,97394.69
2022-09-25T03:29:25.139Z,97387.38
2022-09-25T03:31:52.200Z,97391.69
2022-09-25T03:34:19.054Z,97392.38
2022-09-25T03:36:47.416Z,97394.78
2022-09-25T03:39:17.678Z,97383.69
2022-09-25T03:41:45.197Z,97374.16
2022-09-25T03:44:12.387Z,97383.16
2022-09-25T03:46:39.326Z,97387.78
2022-09-25T03:49:06.173Z,97383.47
2022-09-25T03:51:33.667Z,97380.44
2022-09-25T03:54:04.149Z,97378.75
2022-09-25T03:56:30.912Z,97384.78
2022-09-25T03:58:57.950Z,97388.56
2022-09-25T04:01:26.578Z,97386.16
2022-09-25T04:03:53.620Z,97379.34
2022-09-25T04:06:24.060Z,97384.78
2022-09-25T04:08:51.185Z,97388.25
2022-09-25T04:11:20.599Z,97381.75
2022-09-25T04:13:47.505Z,97379.25
2022-09-25T04:16:16.764Z,97382.84
2022-09-25T04:18:43.805Z,97377.75
2022-09-25T04:21:12.799Z,97386.44
2022-09-25T04:23:40.053Z,62402.38
2022-09-25T04:26:07.933Z,62402.38
2022-09-25T04:28:36.354Z,62402.38
2022-09-25T04:31:03.846Z,62402.38
2022-09-25T04:33:46.328Z,62402.38
2022-09-25T04:36:13.643Z,62402.38
2022-09-25T04:38:40.342Z,62402.38
2022-09-25T04:41:08.072Z,62402.38
2022-09-25T04:43:36.293Z,62402.38
2022-09-25T04:46:04.142Z,62402.38
2022-09-25T04:48:31.140Z,62402.38
2022-09-25T04:50:58.314Z,62402.38
2022-09-25T04:53:26.440Z,62402.38
2022-09-25T04:55:54.346Z,62402.38
2022-09-25T04:58:21.606Z,62402.38
2022-09-25T05:00:50.384Z,62402.38
2022-09-25T05:03:17.233Z,62402.38
2022-09-25T05:05:44.117Z,62402.38
2022-09-25T05:08:11.587Z,62402.38
2022-09-25T05:10:41.993Z,62402.38
2022-09-25T05:13:11.129Z,62402.38
2022-09-25T05:15:38.179Z,62402.38
2022-09-25T05:18:11.377Z,62402.38
2022-09-25T05:20:38.981Z,62402.38
2022-09-25T05:23:05.589Z,62402.38
2022-09-25T05:25:32.790Z,62402.38
2022-09-25T05:28:01.088Z,62402.38
2022-09-25T05:30:29.784Z,62402.38
2022-09-25T05:32:59.427Z,62402.38
2022-09-25T05:35:29.073Z,62402.38
2022-09-25T05:37:56.052Z,62402.38
2022-09-25T05:40:23.527Z,62402.38
2022-09-25T05:42:51.440Z,62402.38
2022-09-25T05:45:20.413Z,62402.38
2022-09-25T05:47:47.305Z,62402.38
2022-09-25T05:50:16.350Z,62402.38
2022-09-25T05:52:44.401Z,62402.38
2022-09-25T05:55:11.947Z,62402.38
2022-09-25T05:57:39.175Z,62402.38
2022-09-25T06:00:09.489Z,62402.38
2022-09-25T06:02:36.136Z,62402.38
2022-09-25T06:05:02.983Z,62402.38
2022-09-25T06:07:29.672Z,62402.38
2022-09-25T06:09:57.676Z,62402.38
2022-09-25T06:12:24.726Z,62402.38
2022-09-25T06:14:52.319Z,62402.38
2022-09-25T06:17:19.218Z,62402.38
2022-09-25T06:19:46.380Z,62402.38
2022-09-25T06:22:13.342Z,62402.38
2022-09-25T06:24:40.012Z,62402.38
2022-09-25T06:27:08.291Z,62402.38
2022-09-25T06:29:35.916Z,62402.38
2022-09-25T06:32:04.247Z,62402.38
2022-09-25T06:34:30.984Z,62402.38
2022-09-25T06:36:59.729Z,62402.38
2022-09-25T06:39:26.484Z,62402.38
2022-09-25T06:41:53.807Z,62402.38
2022-09-25T06:44:22.918Z,62402.38
2022-09-25T06:46:51.502Z,62402.38
2022-09-25T06:49:18.699Z,62402.38
2022-09-25T06:51:45.633Z,62402.38
2022-09-25T06:54:12.540Z,62402.38
2022-09-25T06:56:39.316Z,62402.38
2022-09-25T06:59:05.949Z,62402.38
2022-09-25T07:01:34.117Z,62402.38
2022-09-25T07:04:01.702Z,62402.38
2022-09-25T07:06:30.900Z,62402.38
2022-09-25T07:08:57.651Z,62402.38
2022-09-25T07:11:25.985Z,62402.38
2022-09-25T07:13:55.465Z,62402.38
2022-09-25T07:16:25.414Z,62402.38
2022-09-25T07:18:55.188Z,62402.38
2022-09-25T07:21:24.376Z,62402.38
2022-09-25T07:23:52.126Z,62402.38
2022-09-25T07:26:23.544Z,62402.38
2022-09-25T07:28:55.154Z,62402.38
2022-09-25T07:31:23.025Z,62402.38
2022-09-25T07:33:50.487Z,62402.38
2022-09-25T07:36:18.732Z,62402.38
2022-09-25T07:38:49.716Z,62402.38
2022-09-25T07:41:17.869Z,62402.38
2022-09-25T07:43:44.902Z,62402.38
2022-09-25T07:46:12.589Z,62402.38
2022-09-25T07:48:40.376Z,62402.38
2022-09-25T07:51:10.149Z,62402.38
2022-09-25T07:53:38.818Z,62402.38
2022-09-25T07:56:07.188Z,62402.38
2022-09-25T07:58:35.733Z,62402.38
2022-09-25T08:01:05.555Z,62402.38
2022-09-25T08:03:32.782Z,62402.38
2022-09-25T08:06:00.562Z,62402.38
2022-09-25T08:08:27.325Z,62402.38
2022-09-25T08:10:59.863Z,62402.38
2022-09-25T08:13:27.085Z,62402.38
2022-09-25T08:15:54.454Z,62402.38
2022-09-25T08:18:21.196Z,62402.38
2022-09-25T08:20:48.376Z,62402.38
2022-09-25T08:23:15.100Z,62402.38
2022-09-25T08:25:41.923Z,62402.38
2022-09-25T08:28:10.068Z,62402.38
2022-09-25T08:30:37.617Z,62402.38
2022-09-25T08:33:04.633Z,62402.38
2022-09-25T08:35:31.546Z,62402.38
2022-09-25T08:37:58.258Z,62402.38
2022-09-25T08:40:30.411Z,62402.38
2022-09-25T08:42:58.669Z,62402.38
2022-09-25T08:45:50.699Z,62402.38
2022-09-25T08:48:41.637Z,62402.38
2022-09-25T08:51:09.081Z,62402.38
2022-09-25T08:53:37.808Z,62402.38
2022-09-25T08:56:15.038Z,62402.38
2022-09-25T08:58:44.016Z,62402.38
2022-09-25T09:01:16.946Z,62402.38
2022-09-25T09:03:48.726Z,62402.38
2022-09-25T09:06:17.536Z,62402.38
2022-09-25T09:08:49.301Z,62402.38
2022-09-25T09:11:22.767Z,62402.38
2022-09-25T09:13:53.499Z,62402.38
2022-09-25T09:16:33.420Z,62402.38
2022-09-25T09:19:02.978Z,62402.38
2022-09-25T09:21:34.832Z,62402.38
2022-09-25T09:24:07.737Z,62402.38
2022-09-25T09:26:50.990Z,62402.38
2022-09-25T09:29:42.259Z,62402.38
2022-09-25T09:32:26.374Z,62402.38
2022-09-25T09:35:07.424Z,62402.38
2022-09-25T09:37:49.932Z,97453.25
2022-09-25T09:40:39.304Z,97445.13
2022-09-25T09:43:19.786Z,97448.63
2022-09-25T09:45:52.972Z,97441.94
2022-09-25T09:48:29.561Z,97445.69
2022-09-25T09:51:01.614Z,97445.50
2022-09-25T09:53:34.526Z,62402.38
2022-09-25T09:56:06.404Z,97448.19
2022-09-25T09:58:45.206Z,97448.19
2022-09-25T10:01:36.673Z,97447.09
2022-09-25T10:04:06.017Z,97454.25
2022-09-25T10:06:37.355Z,97442.03
2022-09-25T10:09:04.331Z,97443.22
2022-09-25T10:11:32.554Z,97437.56
2022-09-25T10:14:05.566Z,97441.38
2022-09-25T10:16:34.567Z,97440.66
2022-09-25T10:19:08.010Z,97440.66
2022-09-25T10:21:43.635Z,97444.31
2022-09-25T10:24:11.301Z,97445.34
2022-09-25T10:26:40.276Z,97442.56
2022-09-25T10:29:27.442Z,97447.75
2022-09-25T10:32:00.210Z,97452.63
2022-09-25T10:34:29.964Z,97456.09
2022-09-25T10:36:58.670Z,97454.03
2022-09-25T10:39:44.795Z,97443.00
2022-09-25T10:42:33.410Z,97445.41
2022-09-25T10:45:15.911Z,97447.03
2022-09-25T10:48:03.469Z,97437.63
2022-09-25T10:50:31.744Z,97453.59
2022-09-25T10:53:03.692Z,97448.09
2022-09-25T10:55:32.419Z,97446.69
2022-09-25T10:58:09.539Z,97449.09
2022-09-25T11:00:43.271Z,97449.09
2022-09-25T11:03:21.249Z,97446.31
2022-09-25T11:05:55.187Z,97448.41
2022-09-25T11:08:23.745Z,97445.91
2022-09-25T11:10:53.167Z,97447.00
2022-09-25T11:13:26.423Z,97440.59
2022-09-25T11:16:03.099Z,97440.34
2022-09-25T11:18:36.639Z,97444.25
2022-09-25T11:21:06.896Z,97448.56
2022-09-25T11:23:38.710Z,97448.97
2022-09-25T11:26:10.408Z,97461.38
2022-09-25T11:28:44.633Z,97457.09
2022-09-25T11:31:21.664Z,97462.78
2022-09-25T11:33:56.203Z,97461.78
2022-09-25T11:36:29.795Z,97462.50
2022-09-25T11:39:21.070Z,97456.59
2022-09-25T11:41:55.221Z,97450.63
2022-09-25T11:44:31.986Z,97451.34
2022-09-25T11:47:04.899Z,97455.69
2022-09-25T11:49:34.525Z,97446.72
2022-09-25T11:52:37.437Z,97457.03
2022-09-25T11:55:42.772Z,97445.50
2022-09-25T11:58:25.594Z,97445.19
2022-09-25T12:01:01.349Z,97450.81
2022-09-25T12:03:37.785Z,97448.63
2022-09-25T12:06:46.475Z,97441.59
2022-09-25T12:09:30.807Z,97442.56
2022-09-25T12:12:07.539Z,97450.19
2022-09-25T12:14:42.804Z,97444.47
2022-09-25T12:17:17.860Z,97445.97
2022-09-25T12:19:52.253Z,97446.97
2022-09-25T12:22:28.554Z,97440.16
2022-09-25T12:25:09.907Z,97447.69
2022-09-25T12:27:49.587Z,97448.69
2022-09-25T12:30:22.873Z,97448.41
2022-09-25T12:33:17.192Z,97449.00
2022-09-25T12:35:53.318Z,97444.56
2022-09-25T12:38:32.036Z,97439.94
2022-09-25T12:41:08.595Z,97442.53
2022-09-25T12:43:41.654Z,97446.13
2022-09-25T12:46:18.327Z,97441.75
2022-09-25T12:48:52.673Z,97443.72
2022-09-25T12:51:26.119Z,97440.72
2022-09-25T12:53:57.922Z,97441.34
2022-09-25T12:56:31.484Z,97445.50
2022-09-25T12:59:05.497Z,97444.28
2022-09-25T13:01:42.627Z,97441.88
2022-09-25T13:04:24.805Z,97441.28
2022-09-25T13:07:04.665Z,97445.91
2022-09-25T13:09:42.990Z,97443.47
2022-09-25T13:12:25.571Z,97439.97
2022-09-25T13:14:58.852Z,97445.75
2022-09-25T13:17:27.816Z,97449.28
2022-09-25T13:20:17.260Z,97447.66
2022-09-25T13:22:45.819Z,97439.19
2022-09-25T13:25:16.768Z,97438.06
2022-09-25T13:27:48.046Z,97444.63
2022-09-25T13:30:22.310Z,97444.03
2022-09-25T13:32:52.502Z,97439.84
2022-09-25T13:35:21.832Z,97436.13
2022-09-25T13:37:50.973Z,97436.28
2022-09-25T13:40:39.269Z,97436.91
2022-09-25T13:43:22.745Z,97435.88
2022-09-25T13:46:10.206Z,97431.50
2022-09-25T13:48:38.760Z,97433.59
2022-09-25T13:51:35.989Z,97436.28
2022-09-25T13:54:05.219Z,97435.78
2022-09-25T13:56:48.504Z,62402.38
2022-09-25T13:59:37.812Z,97433.63
2022-09-25T14:02:37.470Z,97425.72
2022-09-25T14:05:05.973Z,97424.13
2022-09-25T14:07:33.899Z,97415.81
2022-09-25T14:10:03.673Z,97402.59
2022-09-25T14:12:42.786Z,97401.88
2022-09-25T14:15:23.294Z,97403.88
2022-09-25T14:17:52.961Z,97398.84
2022-09-25T14:20:34.597Z,97396.97
2022-09-25T14:23:06.278Z,97397.66
2022-09-25T14:25:37.522Z,97389.91
2022-09-25T14:28:17.259Z,97389.81
2022-09-25T14:30:53.226Z,62402.38
2022-09-25T14:33:45.480Z,62402.38
2022-09-25T14:36:22.452Z,62402.38
2022-09-25T14:39:12.954Z,97400.56
2022-09-25T14:41:53.005Z,97393.72
2022-09-25T14:44:49.439Z,97398.31
2022-09-25T14:47:19.412Z,97389.41
2022-09-25T14:49:51.219Z,62402.38
2022-09-25T14:52:24.067Z,97393.72
2022-09-25T14:54:55.217Z,97391.00
2022-09-25T14:57:26.643Z,97396.31
2022-09-25T14:59:56.241Z,97391.63
2022-09-25T15:02:34.474Z,97403.66
2022-09-25T15:05:17.927Z,97402.28
2022-09-25T15:07:46.691Z,97399.06
2022-09-25T15:10:28.840Z,97398.66
2022-09-25T15:13:06.196Z,97397.25
2022-09-25T15:15:35.436Z,97397.66
2022-09-25T15:18:04.937Z,97392.34
2022-09-25T15:20:34.134Z,97391.63
2022-09-25T15:23:04.122Z,97382.72
2022-09-25T15:25:34.227Z,97381.13
2022-09-25T15:28:04.487Z,97385.81
2022-09-25T15:30:35.886Z,97379.19
2022-09-25T15:33:04.257Z,97390.03
2022-09-25T15:35:34.312Z,97384.00
2022-09-25T15:38:06.368Z,97381.50
2022-09-25T15:40:34.990Z,97381.81
2022-09-25T15:43:03.425Z,97380.81
2022-09-25T15:45:43.719Z,97379.31
2022-09-25T15:48:21.058Z,97377.63
2022-09-25T15:50:48.698Z,97382.00
2022-09-25T15:53:26.915Z,97370.66
2022-09-25T15:56:17.310Z,97373.25
2022-09-25T15:58:48.965Z,97369.88
2022-09-25T16:01:38.847Z,97371.09
2022-09-25T16:04:28.456Z,97365.69
2022-09-25T16:06:55.717Z,97368.66
2022-09-25T16:09:32.086Z,97374.69
2022-09-25T16:12:20.541Z,97370.28
2022-09-25T16:14:48.122Z,97366.97
2022-09-25T16:17:32.771Z,97370.47
2022-09-25T16:20:05.545Z,97365.38
2022-09-25T16:22:41.193Z,97364.56
2022-09-25T16:25:22.215Z,97364.28
2022-09-25T16:27:50.150Z,97368.66
2022-09-25T16:30:19.659Z,97370.28
2022-09-25T16:32:48.762Z,97361.06
2022-09-25T16:35:56.839Z,97361.28
2022-09-25T16:38:31.319Z,97364.56
2022-09-25T16:41:06.006Z,97355.25
2022-09-25T16:43:35.853Z,97359.97
2022-09-25T16:46:11.741Z,97360.47
2022-09-25T16:48:39.870Z,97357.06
2022-09-25T16:51:11.518Z,97364.06
2022-09-25T16:53:39.983Z,97364.34
2022-09-25T16:56:06.822Z,97366.59
2022-09-25T16:58:34.266Z,97367.38
2022-09-25T17:01:04.781Z,97358.47
2022-09-25T17:03:49.786Z,97359.66
2022-09-25T17:06:18.448Z,97349.81
2022-09-25T17:08:45.681Z,97352.63
2022-09-25T17:11:13.417Z,97351.91
2022-09-25T17:13:42.103Z,97349.50
2022-09-25T17:16:09.365Z,97356.00
2022-09-25T17:18:36.539Z,97359.59
2022-09-25T17:21:07.390Z,97358.50
2022-09-25T17:23:36.059Z,97361.09
2022-09-25T17:26:04.772Z,97359.59
2022-09-25T17:28:33.385Z,97358.88
2022-09-25T17:31:00.949Z,97363.78
2022-09-25T17:33:28.550Z,97357.56
2022-09-25T17:35:59.695Z,97358.66
2022-09-25T17:38:27.146Z,97355.47
2022-09-25T17:40:59.371Z,97366.63
2022-09-25T17:43:28.533Z,97368.78
2022-09-25T17:45:56.967Z,97377.69
2022-09-25T17:48:25.885Z,97376.72
2022-09-25T17:50:55.002Z,97373.78
2022-09-25T17:53:24.429Z,97376.50
2022-09-25T17:55:53.939Z,97378.19
2022-09-25T17:58:23.859Z,97377.66
2022-09-25T18:00:52.032Z,97382.06
2022-09-25T18:03:20.143Z,97380.16
2022-09-25T18:05:49.752Z,97388.06
2022-09-25T18:08:17.935Z,97390.19
2022-09-25T18:10:45.207Z,97392.16
2022-09-25T18:13:14.162Z,97392.72
2022-09-25T18:15:48.042Z,97391.50
2022-09-25T18:18:15.631Z,97401.56
2022-09-25T18:21:05.713Z,97406.75
2022-09-25T18:23:35.934Z,97403.16
2022-09-25T18:26:04.173Z,97403.53
2022-09-25T18:28:31.200Z,97396.31
2022-09-25T18:30:59.656Z,97393.16
2022-09-25T18:33:26.766Z,97395.19
2022-09-25T18:35:55.027Z,97396.88
2022-09-25T18:38:21.827Z,97395.75
2022-09-25T18:40:49.145Z,97394.44
2022-09-25T18:43:18.132Z,97403.16
2022-09-25T18:45:49.838Z,97397.84
2022-09-25T18:48:18.778Z,97399.78
2022-09-25T18:50:47.635Z,97397.97
2022-09-25T18:53:16.887Z,97398.00
2022-09-25T18:55:45.680Z,97396.97
2022-09-25T18:58:14.664Z,97390.81
2022-09-25T19:00:43.309Z,97394.97
2022-09-25T19:03:10.567Z,97400.44
2022-09-25T19:05:42.221Z,97398.88
2022-09-25T19:08:11.566Z,97395.16
2022-09-25T19:10:41.008Z,97404.66
2022-09-25T19:13:08.341Z,97394.22
2022-09-25T19:15:35.301Z,97396.91
2022-09-25T19:18:02.264Z,97395.13
2022-09-25T19:20:29.801Z,97393.22
2022-09-25T19:22:57.923Z,97392.47
2022-09-25T19:25:25.000Z,97392.22
2022-09-25T19:27:52.184Z,97384.97
2022-09-25T19:30:19.277Z,97388.69
2022-09-25T19:32:46.523Z,97399.75
2022-09-25T19:35:13.663Z,97398.69
2022-09-25T19:37:43.130Z,97391.97
2022-09-25T19:40:30.741Z,97393.06
2022-09-25T19:42:58.026Z,97396.66
2022-09-25T19:45:25.282Z,97397.78
2022-09-25T19:47:53.806Z,97400.47
2022-09-25T19:50:21.478Z,97401.53
2022-09-25T19:52:51.123Z,97398.34
2022-09-25T19:55:20.178Z,97403.25
2022-09-25T19:57:48.121Z,97406.75
2022-09-25T20:00:18.405Z,97405.91
2022-09-25T20:02:47.032Z,97400.53
2022-09-25T20:05:15.299Z,97403.22
2022-09-25T20:07:44.042Z,97401.59
2022-09-25T20:10:11.154Z,97399.16
2022-09-25T20:12:40.123Z,97389.44
2022-09-25T20:15:08.023Z,97387.28
2022-09-25T20:17:34.978Z,97392.91
2022-09-25T20:20:02.758Z,97388.03
2022-09-25T20:22:31.722Z,97385.66
2022-09-25T20:24:58.839Z,97387.00
2022-09-25T20:27:26.138Z,97381.41
2022-09-25T20:29:54.359Z,97382.75
2022-09-25T20:32:20.954Z,97380.63
2022-09-25T20:34:47.742Z,97380.41
2022-09-25T20:37:14.880Z,97373.16
2022-09-25T20:39:41.504Z,97367.81
2022-09-25T20:42:09.660Z,97365.69
2022-09-25T20:44:36.479Z,97364.66
2022-09-25T20:47:06.768Z,97364.69
2022-09-25T20:49:33.902Z,97364.19
2022-09-25T20:52:01.322Z,97363.66
2022-09-25T20:54:28.614Z,97357.47
2022-09-25T20:56:55.353Z,97365.59
2022-09-25T20:59:22.079Z,97360.50
2022-09-25T21:01:49.066Z,97356.22
2022-09-25T21:04:18.144Z,97356.66
2022-09-25T21:06:45.302Z,97349.66
2022-09-25T21:09:19.011Z,97349.56
2022-09-25T21:11:47.034Z,97350.63
2022-09-25T21:14:19.437Z,97356.56
2022-09-25T21:16:47.243Z,97360.09
2022-09-25T21:19:16.257Z,97355.81
2022-09-25T21:21:45.116Z,97361.53
2022-09-25T21:24:14.630Z,97359.66
2022-09-25T21:26:41.459Z,97356.47
2022-09-25T21:29:09.713Z,97351.63
2022-09-25T21:31:38.907Z,97360.28
2022-09-25T21:34:07.712Z,62402.38
2022-09-25T21:36:34.608Z,62402.38
2022-09-25T21:39:03.172Z,62402.38
2022-09-25T21:41:31.874Z,62402.38
2022-09-25T21:44:00.688Z,62402.38
2022-09-25T21:46:29.129Z,62402.38
2022-09-25T21:48:57.680Z,62402.38
2022-09-25T21:51:26.364Z,62402.38
2022-09-25T21:53:53.836Z,62402.38
2022-09-25T21:56:23.376Z,62402.38
2022-09-25T21:58:52.485Z,62402.38
2022-09-25T22:01:21.214Z,62402.38
2022-09-25T22:03:49.910Z,62402.38
2022-09-25T22:06:19.704Z,62402.38
2022-09-25T22:08:48.690Z,62402.38
2022-09-25T22:11:16.510Z,62402.38
2022-09-25T22:13:46.164Z,62402.38
2022-09-25T22:16:16.123Z,62402.38
2022-09-25T22:18:44.847Z,62402.38
2022-09-25T22:21:12.463Z,97360.28
2022-09-25T22:23:39.299Z,97338.34
2022-09-25T22:26:06.004Z,97340.91
2022-09-25T22:28:33.807Z,97341.53
2022-09-25T22:31:05.965Z,97330.59
2022-09-25T22:33:33.275Z,97332.25
2022-09-25T22:36:00.363Z,97330.94
2022-09-25T22:38:27.358Z,97332.56
2022-09-25T22:40:54.021Z,97325.84
2022-09-25T22:43:20.751Z,97325.84
2022-09-25T22:45:49.147Z,97330.94
2022-09-25T22:48:17.985Z,97325.31
2022-09-25T22:50:53.249Z,97328.81
2022-09-25T22:53:20.523Z,97322.38
2022-09-25T22:55:47.902Z,97323.97
2022-09-25T22:58:14.811Z,97317.00
2022-09-25T23:00:42.805Z,97310.00
2022-09-25T23:03:09.507Z,97310.56
2022-09-25T23:05:38.044Z,97305.19
2022-09-25T23:08:05.448Z,97309.19
2022-09-25T23:10:55.255Z,97301.69
2022-09-25T23:13:20.502Z,97313.25
2022-09-25T23:15:47.487Z,97314.56
2022-09-25T23:18:14.760Z,97300.06
2022-09-25T23:20:42.949Z,97301.69
2022-09-25T23:23:09.796Z,97306.75
2022-09-25T23:25:36.697Z,97299.13
2022-09-25T23:28:03.922Z,97293.56
2022-09-25T23:30:31.867Z,97290.66
2022-09-25T23:32:58.598Z,97297.94
2022-09-25T23:35:25.486Z,97291.75
2022-09-25T23:37:53.593Z,97283.94
2022-09-25T23:40:20.380Z,97289.88
2022-09-25T23:42:47.049Z,97277.53
2022-09-25T23:45:14.327Z,97276.97
2022-09-25T23:47:40.967Z,62402.38
2022-09-25T23:50:08.175Z,62402.38
2022-09-25T23:52:35.088Z,62402.38
2022-09-25T23:55:03.350Z,62402.38
2022-09-25T23:57:30.038Z,62402.38
2022-09-25T23:59:56.678Z,62402.38
